Leo Star I — ELXC6 — position and weather

sailwx.info

Track history (hours):
 
Tides and Currents Weather Stations Pressure Air Temp Water Temp Dewpoint Dewpoint Depression Visibility Wind Speed Wind Dir Waves Ship Positions

Leo Star I

Last reported at 2016-Jun-12 19:30 UTC. Time now 2016-Jun-28 18:48 UTC.
Position N 49°11' W 006°27'.
Warning: this ship's position is 15 days out of date.

Length 157 m; draft 9.1 m.

Type: Cargo ship. MMSI: 636015065.

Date/timePositionNaut miles runAvg speedWind from/ knotsBaromVisibWave heightAir tempDewpointWater temp
2016-Jun-12 19:30N 49°11' W 006°27'2110.4
2016-Jun-12 17:29N 49°18' W 005°57'7510.4
2016-Jun-12 10:16N 49°43' W 004°08'710.2
2016-Jun-12 09:33N 49°45' W 003°57'1110.5
2016-Jun-12 08:31N 49°49' W 003°41'1111.0
2016-Jun-12 07:33N 49°52' W 003°26'1111.4
2016-Jun-12 06:33N 49°56' W 003°09'5310.4
2016-Jun-12 01:26N 50°10' W 001°49'7 8.2
2016-Jun-12 00:33N 50°12' W 001°38'10 8.4
2016-Jun-11 23:23N 50°15' W 001°23'10 9.7
2016-Jun-11 22:20N 50°18' W 001°08'1011.5
2016-Jun-11 21:26N 50°20' W 000°52'1112.2
2016-Jun-11 20:33N 50°24' W 000°36'1312.6
2016-Jun-11 19:33N 50°28' W 000°18'712.4
2016-Jun-11 19:00N 50°29' W 000°07'612.3
2016-Jun-11 18:33N 50°31' E 000°01'1212.0
2016-Jun-11 17:33N 50°35' E 000°19'3610.9
2016-Jun-11 14:13N 50°54' E 001°08'811.5
2016-Jun-11 13:33N 50°59' E 001°17'1313.3
2016-Jun-11 12:33N 51°07' E 001°33'1413.9
2016-Jun-11 11:33N 51°16' E 001°50'1111.5
2016-Jun-11 10:33N 51°24' E 002°03'1111.2
2016-Jun-11 09:33N 51°21' E 002°21'1111.3
2016-Jun-11 08:33N 51°23' E 002°39'10 9.7
2016-Jun-11 07:33N 51°23' E 002°54'9 9.1
2016-Jun-11 06:33N 51°24' E 003°09'10 9.6
2016-Jun-11 05:33N 51°25' E 003°24'8 7.9
2016-Jun-11 04:34N 51°26' E 003°36'7 6.7
2016-Jun-11 03:33N 51°22' E 003°45'4 3.5
2016-Jun-11 02:33N 51°20' E 003°49'3 3.4
2016-Jun-11 01:33N 51°16' E 003°50'6 6.3
2016-Jun-11 00:34N 51°10' E 003°48'5 5.2
2016-Jun-10 23:33N 51°06' E 003°44'1 0.9
2016-Jun-10 22:33N 51°05' E 003°44'0 0.0
2016-Jun-10 21:33N 51°05' E 003°44'0 0.0
2016-Jun-10 20:28N 51°05' E 003°44'0 0.0
2016-Jun-10 19:34N 51°05' E 003°44'0 0.0
2016-Jun-10 18:31N 51°05' E 003°44'0 0.0
2016-Jun-10 17:33N 51°05' E 003°44'0 0.0
2016-Jun-10 16:32N 51°05' E 003°44'0 0.0
2016-Jun-10 15:31N 51°05' E 003°44'0 0.0
2016-Jun-10 14:33N 51°05' E 003°44'0 0.0
2016-Jun-10 13:33N 51°05' E 003°44'0 0.0
2016-Jun-10 12:31N 51°05' E 003°44'0 0.0
2016-Jun-10 11:31N 51°05' E 003°44'0 0.0
2016-Jun-10 10:31N 51°05' E 003°44'0 0.0
2016-Jun-10 09:31N 51°05' E 003°44'0 0.0
2016-Jun-10 08:28N 51°05' E 003°44'0 0.0
2016-Jun-10 07:31N 51°05' E 003°44'0 0.0
2016-Jun-10 06:34N 51°05' E 003°44'0 0.0
2016-Jun-10 05:29N 51°05' E 003°44'0 0.0
2016-Jun-10 04:32N 51°05' E 003°44'0 0.0
2016-Jun-10 03:32N 51°05' E 003°44'0 0.0
2016-Jun-10 02:32N 51°05' E 003°44'0 0.0
2016-Jun-10 01:32N 51°05' E 003°44'0 0.0
2016-Jun-10 00:32N 51°05' E 003°44'0 0.0
2016-Jun-09 23:33N 51°05' E 003°44'0 0.0
2016-Jun-09 22:32N 51°05' E 003°44'0 0.0
2016-Jun-09 21:30N 51°05' E 003°44'0 0.0
2016-Jun-09 20:32N 51°05' E 003°44'0 0.0
2016-Jun-09 19:32N 51°05' E 003°44'0 0.0
2016-Jun-09 18:32N 51°05' E 003°44'0 0.0
2016-Jun-09 17:34N 51°05' E 003°44'0 0.0
2016-Jun-09 16:33N 51°05' E 003°44'0 0.0
2016-Jun-09 15:33N 51°05' E 003°44'0 0.0
2016-Jun-09 14:30N 51°05' E 003°44'0 0.0
2016-Jun-09 13:33N 51°05' E 003°44'0 0.0
2016-Jun-09 12:19N 51°05' E 003°44'0 0.0
2016-Jun-09 11:31N 51°05' E 003°44'0 0.0
2016-Jun-09 10:28N 51°05' E 003°44'0 0.0
2016-Jun-09 09:31N 51°05' E 003°44'0 0.0
2016-Jun-09 08:31N 51°05' E 003°44'0 0.0
2016-Jun-09 07:31N 51°05' E 003°44'0 0.0
2016-Jun-09 06:31N 51°05' E 003°44'0 0.0
2016-Jun-09 05:34N 51°05' E 003°44'0 0.0
2016-Jun-09 04:31N 51°05' E 003°44'0 0.0
2016-Jun-09 03:31N 51°05' E 003°44'0 0.3
2016-Jun-09 02:33N 51°05' E 003°44'6 5.8
2016-Jun-09 01:34N 51°10' E 003°48'7 6.5
2016-Jun-09 00:33N 51°17' E 003°50'0 0.1
2016-Jun-08 23:33N 51°16' E 003°51'0 0.0
2016-Jun-08 22:33N 51°16' E 003°51'0 0.0
2016-Jun-08 21:34N 51°16' E 003°51'0 0.0
2016-Jun-08 20:32N 51°16' E 003°51'0 0.0
2016-Jun-08 19:32N 51°16' E 003°51'0 0.0
2016-Jun-08 18:32N 51°16' E 003°51'0 0.0
2016-Jun-08 17:32N 51°16' E 003°51'0 0.0
2016-Jun-08 16:33N 51°16' E 003°51'0 0.0
2016-Jun-08 15:32N 51°16' E 003°51'0 0.0
2016-Jun-08 14:32N 51°16' E 003°51'0 0.0
2016-Jun-08 13:31N 51°16' E 003°51'0 0.0
2016-Jun-08 12:31N 51°16' E 003°51'0 0.0
2016-Jun-08 11:31N 51°17' E 003°51'0 0.0
2016-Jun-08 10:31N 51°16' E 003°51'0 0.0
2016-Jun-08 09:31N 51°16' E 003°51'0 0.0
2016-Jun-08 08:31N 51°17' E 003°51'0 0.0
2016-Jun-08 07:31N 51°16' E 003°51'0 0.0
2016-Jun-08 06:31N 51°16' E 003°51'0 0.0
2016-Jun-08 05:28N 51°17' E 003°51'0 0.0
2016-Jun-08 04:31N 51°16' E 003°51'0 0.0
2016-Jun-08 03:34N 51°16' E 003°51'0 0.0
2016-Jun-08 02:31N 51°16' E 003°51'0 0.0
2016-Jun-08 01:34N 51°16' E 003°51'0 0.0
2016-Jun-08 00:29N 51°16' E 003°51'0 0.0
2016-Jun-07 23:32N 51°16' E 003°51'0 0.0
2016-Jun-07 22:32N 51°16' E 003°51'0 0.0
2016-Jun-07 21:32N 51°16' E 003°51'0 0.0
2016-Jun-07 20:32N 51°16' E 003°51'0 0.0
2016-Jun-07 19:32N 51°16' E 003°51'0 0.0
2016-Jun-07 18:32N 51°16' E 003°51'0 0.0
2016-Jun-07 17:30N 51°16' E 003°51'0 0.0
2016-Jun-07 16:33N 51°16' E 003°51'0 0.0
2016-Jun-07 15:33N 51°17' E 003°51'0 0.0
2016-Jun-07 14:32N 51°16' E 003°51'0 0.0
2016-Jun-07 13:32N 51°16' E 003°51'0 0.0
2016-Jun-07 12:33N 51°17' E 003°51'0 0.0
2016-Jun-07 11:33N 51°16' E 003°51'0 0.0
2016-Jun-07 10:33N 51°16' E 003°51'0 0.0
2016-Jun-07 09:33N 51°16' E 003°51'0 0.0
2016-Jun-07 08:33N 51°17' E 003°51'0 0.0
2016-Jun-07 07:33N 51°16' E 003°51'0 0.0
2016-Jun-07 06:33N 51°16' E 003°51'0 0.0
2016-Jun-07 05:31N 51°16' E 003°51'0 0.0
2016-Jun-07 04:31N 51°16' E 003°51'0 0.0
2016-Jun-07 03:31N 51°16' E 003°51'0 0.0
2016-Jun-07 02:31N 51°16' E 003°51'0 0.1
2016-Jun-07 01:33N 51°16' E 003°51'0 0.0
2016-Jun-07 00:32N 51°16' E 003°51'0 0.0
2016-Jun-06 23:31N 51°16' E 003°51'0 0.0
2016-Jun-06 22:31N 51°16' E 003°51'0 0.0
2016-Jun-06 21:31N 51°16' E 003°51'0 0.0
2016-Jun-06 20:31N 51°16' E 003°51'0 0.0
2016-Jun-06 19:31N 51°16' E 003°51'0 0.0
2016-Jun-06 18:34N 51°16' E 003°51'0 0.0
2016-Jun-06 17:31N 51°16' E 003°51'0 0.0
2016-Jun-06 16:31N 51°16' E 003°51'0 0.0
2016-Jun-06 15:31N 51°16' E 003°51'0 0.0
2016-Jun-06 14:31N 51°16' E 003°51'0 0.0
2016-Jun-06 13:31N 51°16' E 003°51'0 0.0
2016-Jun-06 12:31N 51°16' E 003°51'0 0.0
2016-Jun-06 11:33N 51°16' E 003°51'0 0.0
2016-Jun-06 10:33N 51°16' E 003°51'0 0.0
2016-Jun-06 09:32N 51°16' E 003°51'0 0.0
2016-Jun-06 08:32N 51°16' E 003°51'0 0.0
2016-Jun-06 07:34N 51°16' E 003°51'0 0.0
2016-Jun-06 06:33N 51°16' E 003°51'0 0.0
2016-Jun-06 05:32N 51°16' E 003°51'0 0.0
2016-Jun-06 04:33N 51°16' E 003°51'0 0.0
2016-Jun-06 03:32N 51°16' E 003°51'0 0.0
2016-Jun-06 02:32N 51°16' E 003°51'0 0.0
2016-Jun-06 01:32N 51°16' E 003°51'0 0.0
2016-Jun-06 00:32N 51°16' E 003°51'0 0.0
2016-Jun-05 23:32N 51°16' E 003°51'0 0.0
2016-Jun-05 22:32N 51°16' E 003°51'0 0.0
2016-Jun-05 21:32N 51°16' E 003°51'0 0.0
2016-Jun-05 20:32N 51°16' E 003°51'0 0.0
2016-Jun-05 19:32N 51°16' E 003°51'0 0.0
2016-Jun-05 18:32N 51°16' E 003°51'0 0.2
2016-Jun-05 17:34N 51°17' E 003°51'3 2.9
2016-Jun-05 16:33N 51°19' E 003°49'0 0.0
2016-Jun-05 15:34N 51°19' E 003°49'0 0.0
2016-Jun-05 14:31N 51°19' E 003°49'0 0.0
2016-Jun-05 13:33N 51°19' E 003°49'0 0.0
2016-Jun-05 12:32N 51°19' E 003°49'0 0.4
2016-Jun-05 11:33N 51°20' E 003°49'5 4.5
2016-Jun-05 10:34N 51°23' E 003°43'5 5.0
2016-Jun-05 09:31N 51°25' E 003°36'0 0.0
2016-Jun-05 08:31N 51°25' E 003°36'0 0.1
2016-Jun-05 07:31N 51°25' E 003°36'0 0.0
2016-Jun-05 06:31N 51°25' E 003°36'0 0.5
2016-Jun-05 05:33N 51°25' E 003°35'7 7.4
2016-Jun-05 04:33N 51°24' E 003°23'9 8.8
2016-Jun-05 03:33N 51°24' E 003°09'10 9.9
2016-Jun-05 02:33N 51°22' E 002°53'8 8.1
2016-Jun-05 01:33N 51°25' E 002°41'1 0.6
2016-Jun-05 00:31N 51°25' E 002°41'0 0.0
2016-Jun-04 23:31N 51°25' E 002°41'0 0.1
2016-Jun-04 22:31N 51°24' E 002°41'0 0.1
2016-Jun-04 21:31N 51°24' E 002°41'0 0.0
2016-Jun-04 20:31N 51°24' E 002°41'0 0.0
2016-Jun-04 19:34N 51°24' E 002°41'0 0.0
2016-Jun-04 18:30N 51°24' E 002°41'0 0.0
2016-Jun-04 17:30N 51°24' E 002°41'0 0.0
2016-Jun-04 16:33N 51°24' E 002°41'0 0.1
2016-Jun-04 15:30N 51°24' E 002°41'0 0.1
2016-Jun-04 14:33N 51°25' E 002°41'0 0.0
2016-Jun-04 13:33N 51°25' E 002°41'0 0.0
2016-Jun-04 12:33N 51°25' E 002°41'0 0.0
2016-Jun-04 11:27N 51°25' E 002°41'0 0.1
2016-Jun-04 10:27N 51°24' E 002°41'0 0.1
2016-Jun-04 09:33N 51°24' E 002°41'0 0.0
2016-Jun-04 08:33N 51°24' E 002°41'0 0.0
2016-Jun-04 07:33N 51°24' E 002°41'0 0.0
2016-Jun-04 06:33N 51°24' E 002°41'0 0.0
2016-Jun-04 05:33N 51°24' E 002°41'0 0.0
2016-Jun-04 04:33N 51°24' E 002°41'0 0.0
2016-Jun-04 03:33N 51°24' E 002°41'0 0.1
2016-Jun-04 02:33N 51°25' E 002°41'0 0.0
2016-Jun-04 01:33N 51°25' E 002°41'0 0.0
2016-Jun-04 00:33N 51°25' E 002°41'0 0.0
2016-Jun-03 23:33N 51°25' E 002°41'0 0.0
2016-Jun-03 22:27N 51°25' E 002°41'0 0.1
2016-Jun-03 21:33N 51°24' E 002°41'0 0.1
2016-Jun-03 20:33N 51°24' E 002°41'0 0.0
2016-Jun-03 19:33N 51°24' E 002°41'0 0.0
2016-Jun-03 18:33N 51°24' E 002°41'0 0.0
2016-Jun-03 17:33N 51°24' E 002°41'0 0.0
2016-Jun-03 16:27N 51°24' E 002°41'0 0.0
2016-Jun-03 15:33N 51°24' E 002°41'0 0.0
2016-Jun-03 14:33N 51°24' E 002°41'0 0.1
2016-Jun-03 13:33N 51°24' E 002°41'0 0.0
2016-Jun-03 12:33N 51°25' E 002°41'0 0.0
2016-Jun-03 11:33N 51°25' E 002°41'0 0.0
2016-Jun-03 10:33N 51°25' E 002°41'0 0.1
2016-Jun-03 09:29N 51°24' E 002°41'0 0.1
2016-Jun-03 08:32N 51°24' E 002°41'0 0.0
2016-Jun-03 07:32N 51°24' E 002°41'0 0.0
2016-Jun-03 06:29N 51°24' E 002°41'0 0.0
2016-Jun-03 05:32N 51°24' E 002°41'0 0.0
2016-Jun-03 04:26N 51°24' E 002°41'0 0.0
2016-Jun-03 03:29N 51°24' E 002°41'0 0.0
2016-Jun-03 02:29N 51°24' E 002°41'0 0.0
2016-Jun-03 01:33N 51°24' E 002°41'0 0.0
2016-Jun-02 23:29N 51°24' E 002°41'0 0.0
2016-Jun-02 22:17N 51°24' E 002°41'0 0.0
2016-Jun-02 21:32N 51°24' E 002°41'0 0.0
2016-Jun-02 20:32N 51°24' E 002°41'0 0.0
2016-Jun-02 19:32N 51°24' E 002°41'  
Track history (hours):
 
Tides and Currents Weather Stations Pressure Air Temp Water Temp Dewpoint Dewpoint Depression Visibility Wind Speed Wind Dir Waves Ship Positions

Leo Star I

Last reported at 2016-Jun-12 19:30 UTC. Time now 2016-Jun-28 18:48 UTC.
Position N 49°11' W 006°27'.
Warning: this ship's position is 15 days out of date.

Length 157 m; draft 9.1 m.

Type: Cargo ship. MMSI: 636015065.

Date/timePositionNaut miles runAvg speedWind from/ knotsBaromVisibWave heightAir tempDewpointWater temp
2016-Jun-12 19:30N 49°11' W 006°27'2110.4
2016-Jun-12 17:29N 49°18' W 005°57'7510.4
2016-Jun-12 10:16N 49°43' W 004°08'710.2
2016-Jun-12 09:33N 49°45' W 003°57'1110.5
2016-Jun-12 08:31N 49°49' W 003°41'1111.0
2016-Jun-12 07:33N 49°52' W 003°26'1111.4
2016-Jun-12 06:33N 49°56' W 003°09'5310.4
2016-Jun-12 01:26N 50°10' W 001°49'7 8.2
2016-Jun-12 00:33N 50°12' W 001°38'10 8.4
2016-Jun-11 23:23N 50°15' W 001°23'10 9.7
2016-Jun-11 22:20N 50°18' W 001°08'1011.5
2016-Jun-11 21:26N 50°20' W 000°52'1112.2
2016-Jun-11 20:33N 50°24' W 000°36'1312.6
2016-Jun-11 19:33N 50°28' W 000°18'712.4
2016-Jun-11 19:00N 50°29' W 000°07'612.3
2016-Jun-11 18:33N 50°31' E 000°01'1212.0
2016-Jun-11 17:33N 50°35' E 000°19'3610.9
2016-Jun-11 14:13N 50°54' E 001°08'811.5
2016-Jun-11 13:33N 50°59' E 001°17'1313.3
2016-Jun-11 12:33N 51°07' E 001°33'1413.9
2016-Jun-11 11:33N 51°16' E 001°50'1111.5
2016-Jun-11 10:33N 51°24' E 002°03'1111.2
2016-Jun-11 09:33N 51°21' E 002°21'1111.3
2016-Jun-11 08:33N 51°23' E 002°39'10 9.7
2016-Jun-11 07:33N 51°23' E 002°54'9 9.1
2016-Jun-11 06:33N 51°24' E 003°09'10 9.6
2016-Jun-11 05:33N 51°25' E 003°24'8 7.9
2016-Jun-11 04:34N 51°26' E 003°36'7 6.7
2016-Jun-11 03:33N 51°22' E 003°45'4 3.5
2016-Jun-11 02:33N 51°20' E 003°49'3 3.4
2016-Jun-11 01:33N 51°16' E 003°50'6 6.3
2016-Jun-11 00:34N 51°10' E 003°48'5 5.2
2016-Jun-10 23:33N 51°06' E 003°44'1 0.9
2016-Jun-10 22:33N 51°05' E 003°44'0 0.0
2016-Jun-10 21:33N 51°05' E 003°44'0 0.0
2016-Jun-10 20:28N 51°05' E 003°44'0 0.0
2016-Jun-10 19:34N 51°05' E 003°44'0 0.0
2016-Jun-10 18:31N 51°05' E 003°44'0 0.0
2016-Jun-10 17:33N 51°05' E 003°44'0 0.0
2016-Jun-10 16:32N 51°05' E 003°44'0 0.0
2016-Jun-10 15:31N 51°05' E 003°44'0 0.0
2016-Jun-10 14:33N 51°05' E 003°44'0 0.0
2016-Jun-10 13:33N 51°05' E 003°44'0 0.0
2016-Jun-10 12:31N 51°05' E 003°44'0 0.0
2016-Jun-10 11:31N 51°05' E 003°44'0 0.0
2016-Jun-10 10:31N 51°05' E 003°44'0 0.0
2016-Jun-10 09:31N 51°05' E 003°44'0 0.0
2016-Jun-10 08:28N 51°05' E 003°44'0 0.0
2016-Jun-10 07:31N 51°05' E 003°44'0 0.0
2016-Jun-10 06:34N 51°05' E 003°44'0 0.0
2016-Jun-10 05:29N 51°05' E 003°44'0 0.0
2016-Jun-10 04:32N 51°05' E 003°44'0 0.0
2016-Jun-10 03:32N 51°05' E 003°44'0 0.0
2016-Jun-10 02:32N 51°05' E 003°44'0 0.0
2016-Jun-10 01:32N 51°05' E 003°44'0 0.0
2016-Jun-10 00:32N 51°05' E 003°44'0 0.0
2016-Jun-09 23:33N 51°05' E 003°44'0 0.0
2016-Jun-09 22:32N 51°05' E 003°44'0 0.0
2016-Jun-09 21:30N 51°05' E 003°44'0 0.0
2016-Jun-09 20:32N 51°05' E 003°44'0 0.0
2016-Jun-09 19:32N 51°05' E 003°44'0 0.0
2016-Jun-09 18:32N 51°05' E 003°44'0 0.0
2016-Jun-09 17:34N 51°05' E 003°44'0 0.0
2016-Jun-09 16:33N 51°05' E 003°44'0 0.0
2016-Jun-09 15:33N 51°05' E 003°44'0 0.0
2016-Jun-09 14:30N 51°05' E 003°44'0 0.0
2016-Jun-09 13:33N 51°05' E 003°44'0 0.0
2016-Jun-09 12:19N 51°05' E 003°44'0 0.0
2016-Jun-09 11:31N 51°05' E 003°44'0 0.0
2016-Jun-09 10:28N 51°05' E 003°44'0 0.0
2016-Jun-09 09:31N 51°05' E 003°44'0 0.0
2016-Jun-09 08:31N 51°05' E 003°44'0 0.0
2016-Jun-09 07:31N 51°05' E 003°44'0 0.0
2016-Jun-09 06:31N 51°05' E 003°44'0 0.0
2016-Jun-09 05:34N 51°05' E 003°44'0 0.0
2016-Jun-09 04:31N 51°05' E 003°44'0 0.0
2016-Jun-09 03:31N 51°05' E 003°44'0 0.3
2016-Jun-09 02:33N 51°05' E 003°44'6 5.8
2016-Jun-09 01:34N 51°10' E 003°48'7 6.5
2016-Jun-09 00:33N 51°17' E 003°50'0 0.1
2016-Jun-08 23:33N 51°16' E 003°51'0 0.0
2016-Jun-08 22:33N 51°16' E 003°51'0 0.0
2016-Jun-08 21:34N 51°16' E 003°51'0 0.0
2016-Jun-08 20:32N 51°16' E 003°51'0 0.0
2016-Jun-08 19:32N 51°16' E 003°51'0 0.0
2016-Jun-08 18:32N 51°16' E 003°51'0 0.0
2016-Jun-08 17:32N 51°16' E 003°51'0 0.0
2016-Jun-08 16:33N 51°16' E 003°51'0 0.0
2016-Jun-08 15:32N 51°16' E 003°51'0 0.0
2016-Jun-08 14:32N 51°16' E 003°51'0 0.0
2016-Jun-08 13:31N 51°16' E 003°51'0 0.0
2016-Jun-08 12:31N 51°16' E 003°51'0 0.0
2016-Jun-08 11:31N 51°17' E 003°51'0 0.0
2016-Jun-08 10:31N 51°16' E 003°51'0 0.0
2016-Jun-08 09:31N 51°16' E 003°51'0 0.0
2016-Jun-08 08:31N 51°17' E 003°51'0 0.0
2016-Jun-08 07:31N 51°16' E 003°51'0 0.0
2016-Jun-08 06:31N 51°16' E 003°51'0 0.0
2016-Jun-08 05:28N 51°17' E 003°51'0 0.0
2016-Jun-08 04:31N 51°16' E 003°51'0 0.0
2016-Jun-08 03:34N 51°16' E 003°51'0 0.0
2016-Jun-08 02:31N 51°16' E 003°51'0 0.0
2016-Jun-08 01:34N 51°16' E 003°51'0 0.0
2016-Jun-08 00:29N 51°16' E 003°51'0 0.0
2016-Jun-07 23:32N 51°16' E 003°51'0 0.0
2016-Jun-07 22:32N 51°16' E 003°51'0 0.0
2016-Jun-07 21:32N 51°16' E 003°51'0 0.0
2016-Jun-07 20:32N 51°16' E 003°51'0 0.0
2016-Jun-07 19:32N 51°16' E 003°51'0 0.0
2016-Jun-07 18:32N 51°16' E 003°51'0 0.0
2016-Jun-07 17:30N 51°16' E 003°51'0 0.0
2016-Jun-07 16:33N 51°16' E 003°51'0 0.0
2016-Jun-07 15:33N 51°17' E 003°51'0 0.0
2016-Jun-07 14:32N 51°16' E 003°51'0 0.0
2016-Jun-07 13:32N 51°16' E 003°51'0 0.0
2016-Jun-07 12:33N 51°17' E 003°51'0 0.0
2016-Jun-07 11:33N 51°16' E 003°51'0 0.0
2016-Jun-07 10:33N 51°16' E 003°51'0 0.0
2016-Jun-07 09:33N 51°16' E 003°51'0 0.0
2016-Jun-07 08:33N 51°17' E 003°51'0 0.0
2016-Jun-07 07:33N 51°16' E 003°51'0 0.0
2016-Jun-07 06:33N 51°16' E 003°51'0 0.0
2016-Jun-07 05:31N 51°16' E 003°51'0 0.0
2016-Jun-07 04:31N 51°16' E 003°51'0 0.0
2016-Jun-07 03:31N 51°16' E 003°51'0 0.0
2016-Jun-07 02:31N 51°16' E 003°51'0 0.1
2016-Jun-07 01:33N 51°16' E 003°51'0 0.0
2016-Jun-07 00:32N 51°16' E 003°51'0 0.0
2016-Jun-06 23:31N 51°16' E 003°51'0 0.0
2016-Jun-06 22:31N 51°16' E 003°51'0 0.0
2016-Jun-06 21:31N 51°16' E 003°51'0 0.0
2016-Jun-06 20:31N 51°16' E 003°51'0 0.0
2016-Jun-06 19:31N 51°16' E 003°51'0 0.0
2016-Jun-06 18:34N 51°16' E 003°51'0 0.0
2016-Jun-06 17:31N 51°16' E 003°51'0 0.0
2016-Jun-06 16:31N 51°16' E 003°51'0 0.0
2016-Jun-06 15:31N 51°16' E 003°51'0 0.0
2016-Jun-06 14:31N 51°16' E 003°51'0 0.0
2016-Jun-06 13:31N 51°16' E 003°51'0 0.0
2016-Jun-06 12:31N 51°16' E 003°51'0 0.0
2016-Jun-06 11:33N 51°16' E 003°51'0 0.0
2016-Jun-06 10:33N 51°16' E 003°51'0 0.0
2016-Jun-06 09:32N 51°16' E 003°51'0 0.0
2016-Jun-06 08:32N 51°16' E 003°51'0 0.0
2016-Jun-06 07:34N 51°16' E 003°51'0 0.0
2016-Jun-06 06:33N 51°16' E 003°51'0 0.0
2016-Jun-06 05:32N 51°16' E 003°51'0 0.0
2016-Jun-06 04:33N 51°16' E 003°51'0 0.0
2016-Jun-06 03:32N 51°16' E 003°51'0 0.0
2016-Jun-06 02:32N 51°16' E 003°51'0 0.0
2016-Jun-06 01:32N 51°16' E 003°51'0 0.0
2016-Jun-06 00:32N 51°16' E 003°51'0 0.0
2016-Jun-05 23:32N 51°16' E 003°51'0 0.0
2016-Jun-05 22:32N 51°16' E 003°51'0 0.0
2016-Jun-05 21:32N 51°16' E 003°51'0 0.0
2016-Jun-05 20:32N 51°16' E 003°51'0 0.0
2016-Jun-05 19:32N 51°16' E 003°51'0 0.0
2016-Jun-05 18:32N 51°16' E 003°51'0 0.2
2016-Jun-05 17:34N 51°17' E 003°51'3 2.9
2016-Jun-05 16:33N 51°19' E 003°49'0 0.0
2016-Jun-05 15:34N 51°19' E 003°49'0 0.0
2016-Jun-05 14:31N 51°19' E 003°49'0 0.0
2016-Jun-05 13:33N 51°19' E 003°49'0 0.0
2016-Jun-05 12:32N 51°19' E 003°49'0 0.4
2016-Jun-05 11:33N 51°20' E 003°49'5 4.5
2016-Jun-05 10:34N 51°23' E 003°43'5 5.0
2016-Jun-05 09:31N 51°25' E 003°36'0 0.0
2016-Jun-05 08:31N 51°25' E 003°36'0 0.1
2016-Jun-05 07:31N 51°25' E 003°36'0 0.0
2016-Jun-05 06:31N 51°25' E 003°36'0 0.5
2016-Jun-05 05:33N 51°25' E 003°35'7 7.4
2016-Jun-05 04:33N 51°24' E 003°23'9 8.8
2016-Jun-05 03:33N 51°24' E 003°09'10 9.9
2016-Jun-05 02:33N 51°22' E 002°53'8 8.1
2016-Jun-05 01:33N 51°25' E 002°41'1 0.6
2016-Jun-05 00:31N 51°25' E 002°41'0 0.0
2016-Jun-04 23:31N 51°25' E 002°41'0 0.1
2016-Jun-04 22:31N 51°24' E 002°41'0 0.1
2016-Jun-04 21:31N 51°24' E 002°41'0 0.0
2016-Jun-04 20:31N 51°24' E 002°41'0 0.0
2016-Jun-04 19:34N 51°24' E 002°41'0 0.0
2016-Jun-04 18:30N 51°24' E 002°41'0 0.0
2016-Jun-04 17:30N 51°24' E 002°41'0 0.0
2016-Jun-04 16:33N 51°24' E 002°41'0 0.1
2016-Jun-04 15:30N 51°24' E 002°41'0 0.1
2016-Jun-04 14:33N 51°25' E 002°41'0 0.0
2016-Jun-04 13:33N 51°25' E 002°41'0 0.0
2016-Jun-04 12:33N 51°25' E 002°41'0 0.0
2016-Jun-04 11:27N 51°25' E 002°41'0 0.1
2016-Jun-04 10:27N 51°24' E 002°41'0 0.1
2016-Jun-04 09:33N 51°24' E 002°41'0 0.0
2016-Jun-04 08:33N 51°24' E 002°41'0 0.0
2016-Jun-04 07:33N 51°24' E 002°41'0 0.0
2016-Jun-04 06:33N 51°24' E 002°41'0 0.0
2016-Jun-04 05:33N 51°24' E 002°41'0 0.0
2016-Jun-04 04:33N 51°24' E 002°41'0 0.0
2016-Jun-04 03:33N 51°24' E 002°41'0 0.1
2016-Jun-04 02:33N 51°25' E 002°41'0 0.0
2016-Jun-04 01:33N 51°25' E 002°41'0 0.0
2016-Jun-04 00:33N 51°25' E 002°41'0 0.0
2016-Jun-03 23:33N 51°25' E 002°41'0 0.0
2016-Jun-03 22:27N 51°25' E 002°41'0 0.1
2016-Jun-03 21:33N 51°24' E 002°41'0 0.1
2016-Jun-03 20:33N 51°24' E 002°41'0 0.0
2016-Jun-03 19:33N 51°24' E 002°41'0 0.0
2016-Jun-03 18:33N 51°24' E 002°41'0 0.0
2016-Jun-03 17:33N 51°24' E 002°41'0 0.0
2016-Jun-03 16:27N 51°24' E 002°41'0 0.0
2016-Jun-03 15:33N 51°24' E 002°41'0 0.0
2016-Jun-03 14:33N 51°24' E 002°41'0 0.1
2016-Jun-03 13:33N 51°24' E 002°41'0 0.0
2016-Jun-03 12:33N 51°25' E 002°41'0 0.0
2016-Jun-03 11:33N 51°25' E 002°41'0 0.0
2016-Jun-03 10:33N 51°25' E 002°41'0 0.1
2016-Jun-03 09:29N 51°24' E 002°41'0 0.1
2016-Jun-03 08:32N 51°24' E 002°41'0 0.0
2016-Jun-03 07:32N 51°24' E 002°41'0 0.0
2016-Jun-03 06:29N 51°24' E 002°41'0 0.0
2016-Jun-03 05:32N 51°24' E 002°41'0 0.0
2016-Jun-03 04:26N 51°24' E 002°41'0 0.0
2016-Jun-03 03:29N 51°24' E 002°41'0 0.0
2016-Jun-03 02:29N 51°24' E 002°41'0 0.0
2016-Jun-03 01:33N 51°24' E 002°41'0 0.0
2016-Jun-02 23:29N 51°24' E 002°41'0 0.0
2016-Jun-02 22:17N 51°24' E 002°41'0 0.0
2016-Jun-02 21:32N 51°24' E 002°41'0 0.0
2016-Jun-02 20:32N 51°24' E 002°41'0 0.0
2016-Jun-02 19:32N 51°24' E 002°41'  

Dump ship's entire track history